Atlanta, MI

5:21 AM EST on January 25, 2015 (GMT -0500)
Moon Lake | Change Station
CLOSE
Current Station
Personal Weather Station
Location: Lewiston, MI
Elevation: 1240 ft
Nearby Weather Stations

Elev 1240 ft 44.84 °N, 84.26 °W | Updated 10 minutes ago

Partly Cloudy
Partly Cloudy
13.3 °F
Feels Like 13 °F
N
0.4
Wind Variable Wind from NW
Gusts 0.4 mph

Today
High -- | Low -- °F
--% Chance of Precip.
Yesterday
High -- | Low -- °F
Precip. -- in
8:03 AM 5:34 PM
Waxing Crescent, 31% visible
Pressure 29.89 in
Visibility 10.0 miles
Clouds Few 1100 ft
Windchill 13 °F
Dew Point 9 °F
Humidity 82%
Rainfall 0.00 in
Snow Depth Not available.
UV 0 out of 12
Pollen .10 out of 12
Air Quality Not available.
Flu Activity Not available.
METAR KGLR 250953Z AUTO VRB04KT 10SM FEW011 M14/M16 A2982 RMK AO2 SLP121 T11441161 $

More Conditions Fewer Conditions

Pressure 29.89 in
Visibility 10.0 miles
Clouds Few 1100 ft
Windchill 13 °F
Dew Point 9 °F
Humidity 82%
Rainfall 0.00 in
Snow Depth Not available.
UV 0 out of 12
Pollen .10 out of 12
Air Quality Not available.
Flu Activity Not available.
METAR KGLR 250953Z AUTO VRB04KT 10SM FEW011 M14/M16 A2982 RMK AO2 SLP121 T11441161 $

More Conditions Fewer Conditions

Nowcast | as of 5:00 am EST on January 25, 2015

At 6 am...partly cloudy. Temperature 8 above. North winds 5 mph. At 8 am...partly cloudy. Temperature 6 above. Light winds. At 10 am...partly cloudy. Temperature 9 above. Northeast winds 5 mph. At 12 PM...partly cloudy. Temperature 13. Northeast winds 5 mph.

×

10-Day Weather Forecast

Almanac

Astronomy

Jan. 25, 2015 Rise Set
Actual Time
Civil Twilight
Nautical Twilight
Astronomical Twilight
Moon
Length of Visible Light
Length of Day
Tomorrow will be .
, % of the Moon is Illuminated

Today's Extremes

State Highs State Lows

Community

WunderPhotos

Upload Photos

1,789,861 photos uploaded!

WunderBlogs® & News

Nearby

Air Quality

  Air Quality AQ Index Pollutant
Not available.

Snow Depth

Station Depth Elevation

Earthquake Activity

City Distance Mag. Time & Date
Minimum magnitude displayed is 2.5.

Coastal Water Temperatures

Place Temperature

Nearby Weather Stations